Time;durP1;ratioP1;P1;durP2;ratioP2;P2;SDS_P1;SDS_P2;PMS_P1;PMS_P2;Temp;Humidity;BMP_temperature;BMP_pressure;BME280_temperature;BME280_humidity;BME280_pressure;Samples;Min_cycle;Max_cycle;Signal;HPM_P1;HPM_P2
2022/05/18 00:06:39;;;;;;;3.67;2.20;;;;;;;24.82;47.51;100645.84;20841875;27;101845;-74
2022/05/18 00:16:40;;;;;;;2.20;1.80;;;;;;;24.81;47.47;100656.59;20871341;27;100642;-74
2022/05/18 00:26:40;;;;;;;3.55;1.90;;;;;;;24.81;47.12;100653.94;20864258;27;97591;-74
2022/05/18 00:36:41;;;;;;;2.88;2.00;;;;;;;24.81;47.33;100662.69;20858013;27;98604;-73
2022/05/18 00:46:41;;;;;;;1.83;1.67;;;;;;;24.80;47.12;100673.44;20863229;27;96891;-74
2022/05/18 00:56:55;;;;;;;2.67;2.08;;;;;;;24.78;46.79;100678.88;20865886;27;96891;-74
2022/05/18 01:07:02;;;;;;;3.75;1.60;;;;;;;24.77;46.70;100682.50;20864859;27;98674;-74
2022/05/18 01:17:04;;;;;;;9.85;2.22;;;;;;;24.21;44.42;100697.84;20832476;27;96954;-76
2022/05/18 01:27:05;;;;;;;2.67;1.73;;;;;;;24.41;45.12;100706.72;20855419;27;102556;-76
2022/05/18 01:37:05;;;;;;;2.77;1.73;;;;;;;24.51;45.61;100716.50;20864181;27;97108;-75
2022/05/18 01:47:07;;;;;;;4.35;1.60;;;;;;;24.56;45.38;100714.28;20858975;27;97541;-76
2022/05/18 01:57:08;;;;;;;3.53;1.77;;;;;;;24.59;45.39;100728.09;20867207;27;99283;-77
2022/05/18 02:07:11;;;;;;;2.65;1.80;;;;;;;24.60;45.16;100744.84;20882011;27;97866;-77
2022/05/18 02:17:12;;;;;;;2.05;1.60;;;;;;;24.61;45.21;100749.16;20881172;27;97188;-76
2022/05/18 02:27:12;;;;;;;2.33;1.63;;;;;;;24.62;45.29;100764.09;20876209;27;96931;-76
2022/05/18 02:37:12;;;;;;;2.55;1.92;;;;;;;24.60;45.05;100777.44;20871594;27;96932;-76
2022/05/18 02:47:13;;;;;;;2.28;1.67;;;;;;;24.58;44.75;100789.13;20866650;27;97676;-76
2022/05/18 02:57:14;;;;;;;1.88;1.65;;;;;;;24.57;44.92;100795.41;20865899;27;97124;-76
2022/05/18 03:07:14;;;;;;;8.40;2.00;;;;;;;24.54;44.76;100824.78;20861434;27;97430;-76
2022/05/18 03:17:15;;;;;;;2.35;1.85;;;;;;;24.52;44.27;100832.84;20869233;27;97908;-76
2022/05/18 03:27:16;;;;;;;2.00;1.70;;;;;;;24.52;44.33;100853.19;20850562;27;97789;-76
2022/05/18 03:37:17;;;;;;;3.67;1.67;;;;;;;24.48;43.86;100870.31;20858291;27;98793;-75
2022/05/18 03:47:18;;;;;;;2.25;1.60;;;;;;;24.52;44.02;100882.31;20847020;27;97334;-75
2022/05/18 03:57:19;;;;;;;6.38;1.60;;;;;;;24.50;43.70;100906.28;20870074;27;97278;-75
2022/05/18 04:07:19;;;;;;;3.58;1.67;;;;;;;24.52;43.72;100935.28;20858846;27;97147;-75
2022/05/18 04:17:25;;;;;;;9.48;1.83;;;;;;;24.52;43.67;100946.69;20849861;27;97481;-77
2022/05/18 04:27:26;;;;;;;4.53;1.77;;;;;;;24.54;43.41;100965.13;20865145;27;98938;-77
2022/05/18 04:37:26;;;;;;;38.67;4.45;;;;;;;24.51;43.09;100982.09;20685362;27;98627;-73
2022/05/18 04:47:27;;;;;;;10.98;2.70;;;;;;;24.51;43.35;101000.63;20764894;27;101322;-73
2022/05/18 04:57:27;;;;;;;14.65;3.28;;;;;;;24.51;43.80;101023.59;20746326;27;99163;-73
2022/05/18 05:07:28;;;;;;;7.27;2.10;;;;;;;23.97;39.64;101037.56;20741976;27;100319;-73
2022/05/18 05:17:29;;;;;;;6.28;1.95;;;;;;;23.88;38.75;101062.03;20763201;27;98761;-74
2022/05/18 05:27:29;;;;;;;8.68;1.80;;;;;;;23.38;36.35;101087.94;20766591;27;98771;-72
2022/05/18 05:37:32;;;;;;;8.30;1.90;;;;;;;23.46;36.47;101098.75;20702516;27;104163;-74
2022/05/18 05:47:32;;;;;;;2.65;1.50;;;;;;;23.46;36.21;101119.91;20697691;27;96898;-75
2022/05/18 05:57:33;;;;;;;2.15;1.40;;;;;;;23.47;34.44;101140.09;20685366;27;97146;-75
2022/05/18 06:07:34;;;;;;;3.05;1.38;;;;;;;23.43;34.22;101149.22;20694889;28;100012;-75
2022/05/18 06:17:35;;;;;;;2.67;1.40;;;;;;;23.43;33.89;101163.25;20690107;27;100017;-76
2022/05/18 06:27:35;;;;;;;4.28;1.42;;;;;;;23.56;35.64;101184.34;20696996;27;97352;-74
2022/05/18 06:37:36;;;;;;;4.85;1.40;;;;;;;23.66;36.83;101208.28;20641301;28;97529;-75
2022/05/18 06:47:37;;;;;;;3.65;1.38;;;;;;;23.75;37.48;101228.72;20657051;27;97662;-75
2022/05/18 06:57:38;;;;;;;4.22;1.30;;;;;;;23.76;37.23;101238.38;20706833;27;97659;-75
2022/05/18 07:07:38;;;;;;;3.53;1.30;;;;;;;23.82;37.89;101261.69;20727447;27;97725;-75
2022/05/18 07:17:40;;;;;;;4.07;1.17;;;;;;;23.87;37.98;101271.94;20730745;27;97369;-75
2022/05/18 07:27:41;;;;;;;5.47;1.20;;;;;;;23.90;38.26;101277.00;20710865;27;96882;-75
2022/05/18 07:37:41;;;;;;;1.42;1.02;;;;;;;23.93;38.68;101292.66;20718131;27;99166;-75
2022/05/18 07:47:42;;;;;;;3.03;1.27;;;;;;;23.94;38.70;101304.13;20718349;27;98462;-75
2022/05/18 07:57:43;;;;;;;2.35;1.25;;;;;;;24.00;38.74;101318.66;20717924;27;100168;-75
2022/05/18 08:07:46;;;;;;;1.88;1.00;;;;;;;24.00;38.68;101330.09;20715294;27;97400;-75
2022/05/18 08:17:47;;;;;;;1.38;1.13;;;;;;;24.00;38.88;101331.88;20719848;27;96954;-75
2022/05/18 08:27:49;;;;;;;0.80;0.80;;;;;;;24.00;39.10;101356.56;20717141;27;96931;-75
2022/05/18 08:37:50;;;;;;;1.02;0.90;;;;;;;24.02;39.15;101359.91;20700295;27;100414;-75
2022/05/18 08:48:11;;;;;;;1.67;1.00;;;;;;;24.02;39.23;101353.78;20725192;27;97549;-75
2022/05/18 08:58:23;;;;;;;1.50;0.93;;;;;;;24.03;39.28;101360.78;20668292;27;96878;-75
2022/05/18 09:08:37;;;;;;;1.38;0.98;;;;;;;24.07;39.60;101375.44;20721109;27;98746;-75
2022/05/18 09:18:42;;;;;;;1.92;0.90;;;;;;;24.07;39.38;101378.09;20725799;27;97475;-75
2022/05/18 09:29:19;;;;;;;1.40;1.17;;;;;;;24.10;39.45;101375.25;20723015;28;97168;-75
2022/05/18 09:39:25;;;;;;;1.67;1.00;;;;;;;24.10;39.43;101377.88;20708744;27;97931;-75
2022/05/18 09:49:36;;;;;;;1.15;1.00;;;;;;;24.11;39.57;101374.28;20709833;27;98516;-75
2022/05/18 09:59:44;;;;;;;2.67;0.90;;;;;;;24.16;39.54;101387.16;20713230;27;97295;-75
2022/05/18 10:09:47;;;;;;;2.42;1.10;;;;;;;24.17;39.44;101384.41;20710586;27;97036;-76
2022/05/18 10:19:52;;;;;;;1.13;0.82;;;;;;;24.21;39.73;101385.84;20736090;27;96937;-75
2022/05/18 10:30:10;;;;;;;2.72;1.00;;;;;;;24.27;39.42;101385.41;20731023;27;97115;-75
2022/05/18 10:40:17;;;;;;;1.95;0.80;;;;;;;24.33;39.55;101372.66;20751726;27;97149;-76
2022/05/18 10:50:47;;;;;;;1.13;1.02;;;;;;;24.37;39.45;101355.59;20732370;27;96945;-75
2022/05/18 11:00:55;;;;;;;0.80;0.80;;;;;;;24.42;39.47;101364.03;20710749;27;97229;-75
2022/05/18 11:11:04;;;;;;;1.50;0.85;;;;;;;24.46;39.50;101353.09;20727916;27;102263;-75
2022/05/18 11:21:19;;;;;;;1.75;1.02;;;;;;;24.52;39.33;101346.47;20704331;27;97184;-75
2022/05/18 11:31:38;;;;;;;1.00;0.90;;;;;;;24.58;39.00;101339.88;20709503;27;100935;-75
2022/05/18 11:41:57;;;;;;;1.63;0.90;;;;;;;24.64;38.88;101335.91;20684959;27;101526;-74
2022/05/18 11:52:14;;;;;;;0.93;0.57;;;;;;;24.55;31.26;101338.28;20673895;27;98480;-74
2022/05/18 12:02:29;;;;;;;2.75;0.50;;;;;;;24.49;26.59;101344.06;20679558;27;97828;-74
2022/05/18 12:12:44;;;;;;;2.67;0.70;;;;;;;24.45;23.15;101338.16;20669980;27;97847;-75
2022/05/18 12:22:57;;;;;;;1.40;0.50;;;;;;;24.43;22.79;101333.94;20735953;27;97632;-75
2022/05/18 12:32:58;;;;;;;3.60;0.63;;;;;;;24.41;22.30;101331.44;20774233;27;98204;-76
2022/05/18 12:43:36;;;;;;;0.63;0.50;;;;;;;24.40;22.78;101335.03;20786338;27;97009;-75
2022/05/18 12:53:50;;;;;;;0.65;0.40;;;;;;;24.42;22.47;101338.38;20779052;27;97033;-75
2022/05/18 13:03:57;;;;;;;3.05;0.95;;;;;;;24.42;20.64;101334.91;20760913;27;97085;-75
2022/05/18 13:14:00;;;;;;;0.60;0.60;;;;;;;24.47;21.49;101332.75;20771724;27;100915;-78
2022/05/18 13:24:10;;;;;;;0.70;0.52;;;;;;;24.49;20.94;101332.66;20771118;27;101346;-77
2022/05/18 13:34:21;;;;;;;0.50;0.50;;;;;;;24.56;21.54;101329.41;20773879;28;101088;-79
2022/05/18 13:44:24;;;;;;;6.47;1.23;;;;;;;24.49;19.75;101317.59;20738373;27;99588;-76
2022/05/18 13:54:28;;;;;;;1.77;0.60;;;;;;;24.53;20.83;101316.38;20772001;27;97843;-76
2022/05/18 14:04:35;;;;;;;3.20;0.80;;;;;;;24.56;20.02;101302.06;20789695;27;98326;-76
2022/05/18 14:14:36;;;;;;;0.85;0.57;;;;;;;24.56;20.81;101310.00;20786724;27;97964;-76
2022/05/18 14:24:43;;;;;;;1.15;0.63;;;;;;;24.58;20.12;101301.00;20791404;27;98021;-76
2022/05/18 14:34:49;;;;;;;1.95;0.63;;;;;;;24.62;20.20;101309.56;20789745;28;97682;-76
2022/05/18 14:44:53;;;;;;;1.05;0.70;;;;;;;24.60;20.28;101306.19;20791879;27;97739;-76
2022/05/18 14:54:54;;;;;;;0.93;0.60;;;;;;;24.58;19.67;101313.38;20792206;27;97334;-75
2022/05/18 15:05:07;;;;;;;0.95;0.70;;;;;;;24.59;19.16;101315.06;20795302;27;100228;-75
2022/05/18 15:15:14;;;;;;;1.05;0.70;;;;;;;24.62;19.30;101304.25;20784717;27;98732;-76
2022/05/18 15:25:42;;;;;;;1.35;0.65;;;;;;;24.62;19.73;101307.75;20788057;27;97026;-75
2022/05/18 15:35:57;;;;;;;1.02;0.82;;;;;;;24.73;18.47;101308.72;20783675;27;97909;-75
2022/05/18 15:46:03;;;;;;;1.27;0.50;;;;;;;24.84;18.50;101300.78;20804773;27;98544;-76
2022/05/18 15:56:07;;;;;;;1.85;0.80;;;;;;;24.93;17.40;101305.34;20781410;27;98696;-76
2022/05/18 16:06:08;;;;;;;1.75;0.80;;;;;;;24.94;17.72;101304.38;20754086;27;97907;-75
2022/05/18 16:16:08;;;;;;;3.20;1.00;;;;;;;24.78;18.35;101307.41;20728434;27;101896;-76
2022/05/18 16:26:10;;;;;;;3.42;0.70;;;;;;;24.49;16.50;101320.25;20753165;27;100909;-74
2022/05/18 16:36:10;;;;;;;13.13;4.10;;;;;;;23.98;16.93;101321.44;20756593;27;100977;-74
2022/05/18 16:46:22;;;;;;;3.47;1.40;;;;;;;23.55;17.44;101325.41;20740247;27;98456;-75
2022/05/18 16:56:31;;;;;;;1.30;1.00;;;;;;;23.43;18.82;101335.06;20774920;27;97429;-75
2022/05/18 17:06:31;;;;;;;1.88;0.73;;;;;;;22.99;18.79;101339.06;20771243;27;97427;-75
2022/05/18 17:16:34;;;;;;;1.80;0.73;;;;;;;22.83;18.19;101347.22;20735689;27;98997;-74
2022/05/18 17:26:41;;;;;;;1.17;0.75;;;;;;;22.69;18.08;101358.69;20754516;27;97366;-74
2022/05/18 17:36:41;;;;;;;2.35;0.75;;;;;;;23.23;18.93;101356.78;20770180;27;101526;-73
2022/05/18 17:46:42;;;;;;;1.77;0.77;;;;;;;23.38;19.17;101354.88;20763496;27;101037;-74
2022/05/18 17:56:43;;;;;;;5.43;1.10;;;;;;;23.45;19.50;101356.97;20770929;27;98205;-73
2022/05/18 18:06:44;;;;;;;3.13;0.98;;;;;;;23.48;19.08;101362.00;20771042;27;97531;-76
2022/05/18 18:16:44;;;;;;;1.35;1.05;;;;;;;23.44;20.07;101363.19;20744332;27;97614;-75
2022/05/18 18:26:45;;;;;;;4.07;1.60;;;;;;;23.44;20.84;101368.47;20760754;27;98795;-76
2022/05/18 18:36:46;;;;;;;4.20;1.63;;;;;;;23.37;22.51;101366.41;20765092;27;97135;-75
2022/05/18 18:46:47;;;;;;;2.53;1.50;;;;;;;23.23;23.45;101378.78;20776413;27;97652;-75
2022/05/18 18:56:47;;;;;;;4.65;1.50;;;;;;;23.32;24.18;101390.50;20748009;27;97684;-78
2022/05/18 19:06:56;;;;;;;9.07;1.95;;;;;;;23.42;25.00;101401.25;20759833;27;101761;-76
2022/05/18 19:16:59;;;;;;;6.28;2.40;;;;;;;23.46;24.89;101411.50;20756860;27;97669;-76
2022/05/18 19:26:59;;;;;;;4.55;1.83;;;;;;;23.48;24.78;101414.88;20760100;27;100631;-76
2022/05/18 19:36:59;;;;;;;4.70;2.08;;;;;;;23.46;24.29;101416.81;20764628;27;97034;-75
2022/05/18 19:47:00;;;;;;;3.25;2.17;;;;;;;23.30;24.27;101424.97;20772347;27;97425;-75
2022/05/18 19:57:01;;;;;;;2.65;1.90;;;;;;;23.11;25.10;101440.38;20759426;27;100182;-77
2022/05/18 20:07:03;;;;;;;5.45;1.95;;;;;;;23.05;25.28;101449.56;20743231;27;100826;-76
2022/05/18 20:17:04;;;;;;;;;;;;;;;23.02;25.46;101453.28;20715307;27;99180;-77
2022/05/18 20:27:05;;;;;;;5.75;2.63;;;;;;;22.94;26.36;101449.47;20743359;27;99557;-77
2022/05/18 20:37:06;;;;;;;4.15;2.28;;;;;;;22.89;26.72;101455.06;20759909;27;98901;-77
2022/05/18 20:47:09;;;;;;;3.90;2.25;;;;;;;22.77;27.24;101463.81;20726895;27;100913;-77
2022/05/18 20:57:15;;;;;;;1.98;1.80;;;;;;;22.58;27.09;101477.38;20723875;27;101024;-77
2022/05/18 21:07:16;;;;;;;5.22;2.25;;;;;;;22.41;27.76;101487.28;20755993;27;100156;-76
2022/05/18 21:17:21;;;;;;;5.45;1.80;;;;;;;22.22;28.50;101496.31;20746051;27;97465;-76
2022/05/18 21:27:27;;;;;;;4.20;1.80;;;;;;;22.14;28.25;101500.41;20759715;27;100407;-75
2022/05/18 21:37:27;;;;;;;5.53;2.00;;;;;;;22.02;28.95;101502.88;20734672;27;97913;-75
2022/05/18 21:47:28;;;;;;;5.25;1.80;;;;;;;21.93;29.05;101508.72;20733626;27;101164;-75
2022/05/18 21:57:28;;;;;;;3.58;1.70;;;;;;;21.80;29.86;101518.34;20748703;27;97527;-76
2022/05/18 22:07:29;;;;;;;5.32;1.85;;;;;;;21.91;29.96;101516.75;20765690;27;100080;-76
2022/05/18 22:17:29;;;;;;;2.88;2.10;;;;;;;21.97;30.11;101527.84;20774055;27;103566;-77
2022/05/18 22:27:30;;;;;;;5.40;1.80;;;;;;;22.00;30.40;101520.59;20787343;27;98929;-77
2022/05/18 22:37:30;;;;;;;4.57;2.20;;;;;;;21.98;30.11;101526.91;20783291;27;96995;-77
2022/05/18 22:47:34;;;;;;;3.42;2.25;;;;;;;22.00;30.58;101525.03;20781781;27;98298;-76
2022/05/18 22:57:34;;;;;;;4.95;2.10;;;;;;;21.94;30.73;101518.34;20782452;27;97689;-76
2022/05/18 23:07:35;;;;;;;6.07;2.20;;;;;;;21.89;30.42;101528.34;20776776;27;97005;-76
2022/05/18 23:17:36;;;;;;;5.30;2.33;;;;;;;21.84;30.40;101514.59;20758517;27;96844;-75
2022/05/18 23:27:37;;;;;;;3.80;1.90;;;;;;;21.81;30.59;101510.34;20755939;27;97237;-76
2022/05/18 23:37:37;;;;;;;4.70;2.40;;;;;;;21.74;30.70;101517.78;20769230;27;96942;-75
2022/05/18 23:47:49;;;;;;;3.13;2.10;;;;;;;21.70;30.73;101513.66;20780082;27;98005;-76
2022/05/18 23:57:50;;;;;;;2.90;1.85;;;;;;;21.65;30.99;101517.53;20773261;27;97588;-76
